Time;durP1;ratioP1;P1;durP2;ratioP2;P2;SDS_P1;SDS_P2;PMS_P1;PMS_P2;Temp;Humidity;BMP_temperature;BMP_pressure;BME280_temperature;BME280_humidity;BME280_pressure;Samples;Min_cycle;Max_cycle;Signal;HPM_P1;HPM_P2
2021/12/01 00:01:36;;;;;;;2.67;1.75;;;20.00;50.20;;;;;;4851534;29;20038;-62
2021/12/01 00:04:02;;;;;;;2.40;1.80;;;20.00;50.20;;;;;;4855203;29;20030;-62
2021/12/01 00:06:29;;;;;;;4.00;1.92;;;20.00;50.30;;;;;;4855008;29;20063;-62
2021/12/01 00:08:55;;;;;;;2.17;1.60;;;20.00;50.30;;;;;;4848911;29;20038;-65
2021/12/01 00:11:20;;;;;;;2.28;1.58;;;20.00;50.30;;;;;;4847214;29;20045;-65
2021/12/01 00:13:46;;;;;;;3.20;1.60;;;19.90;50.30;;;;;;4851164;29;20117;-66
2021/12/01 00:16:11;;;;;;;3.80;1.70;;;19.90;50.40;;;;;;4842857;29;20026;-66
2021/12/01 00:18:37;;;;;;;2.30;1.75;;;19.90;50.40;;;;;;4842769;29;20061;-64
2021/12/01 00:21:03;;;;;;;1.73;1.60;;;19.90;50.50;;;;;;4842470;29;20085;-63
2021/12/01 00:23:28;;;;;;;3.20;1.83;;;19.90;50.50;;;;;;4856225;29;20754;-64
2021/12/01 00:25:55;;;;;;;2.03;1.63;;;19.90;50.50;;;;;;4843397;29;20038;-66
2021/12/01 00:28:21;;;;;;;2.22;1.67;;;19.90;50.50;;;;;;4843227;29;20431;-66
2021/12/01 00:30:46;;;;;;;2.88;1.60;;;19.80;50.40;;;;;;4842860;29;20038;-66
2021/12/01 00:33:14;;;;;;;3.00;1.40;;;19.80;50.30;;;;;;4848938;29;20034;-66
2021/12/01 00:35:40;;;;;;;2.75;1.40;;;19.80;50.40;;;;;;4841698;29;20510;-66
2021/12/01 00:38:06;;;;;;;1.60;1.20;;;19.80;50.30;;;;;;4826254;29;20141;-66
2021/12/01 00:40:32;;;;;;;1.77;1.23;;;19.80;50.20;;;;;;4844304;29;20137;-66
2021/12/01 00:42:59;;;;;;;2.03;1.40;;;19.80;50.20;;;;;;4842244;29;20398;-66
2021/12/01 00:45:27;;;;;;;1.45;1.30;;;19.70;50.20;;;;;;4843058;29;20022;-66
2021/12/01 00:47:53;;;;;;;1.55;1.17;;;19.70;50.20;;;;;;4826648;29;20372;-66
2021/12/01 00:50:45;;;;;;;1.63;1.10;;;19.70;50.10;;;;;;4843296;29;20041;-66
2021/12/01 00:53:11;;;;;;;2.22;1.30;;;19.70;50.20;;;;;;4838571;29;20486;-66
2021/12/01 00:55:37;;;;;;;2.00;1.38;;;19.70;50.20;;;;;;4842329;29;20069;-66
2021/12/01 00:58:04;;;;;;;2.10;1.42;;;19.60;50.10;;;;;;4827873;29;20387;-66
2021/12/01 01:00:31;;;;;;;1.23;1.00;;;19.70;50.20;;;;;;4845971;29;20022;-66
2021/12/01 01:02:57;;;;;;;1.55;1.27;;;19.60;50.10;;;;;;4847356;29;20026;-66
2021/12/01 01:05:24;;;;;;;1.10;1.00;;;19.60;50.10;;;;;;4845042;29;20202;-67
2021/12/01 01:07:49;;;;;;;1.35;1.10;;;19.60;50.10;;;;;;4845480;29;20041;-67
2021/12/01 01:18:19;;;;;;;1.58;1.20;;;19.50;50.00;;;;;;4845451;29;20402;-67
2021/12/01 01:20:45;;;;;;;1.02;0.90;;;19.50;50.00;;;;;;4845516;29;20026;-66
2021/12/01 01:23:11;;;;;;;1.85;0.80;;;19.50;50.00;;;;;;4844647;29;20053;-64
2021/12/01 01:25:37;;;;;;;1.80;0.95;;;19.50;50.00;;;;;;4844885;29;20430;-64
2021/12/01 01:28:03;;;;;;;1.08;0.90;;;19.50;50.00;;;;;;4845712;29;20094;-64
2021/12/01 01:30:29;;;;;;;1.17;0.90;;;19.50;50.10;;;;;;4845655;29;20022;-64
2021/12/01 01:32:55;;;;;;;1.20;0.98;;;19.50;50.10;;;;;;4850660;29;20034;-64
2021/12/01 01:35:22;;;;;;;0.98;0.80;;;19.40;50.00;;;;;;4845744;29;20058;-64
2021/12/01 01:37:47;;;;;;;2.13;0.80;;;19.40;50.00;;;;;;4849788;29;20471;-64
2021/12/01 01:40:14;;;;;;;1.50;0.95;;;19.40;50.00;;;;;;4846123;29;20046;-64
2021/12/01 01:42:40;;;;;;;1.10;0.80;;;19.40;50.00;;;;;;4848251;29;20022;-64
2021/12/01 01:45:06;;;;;;;1.10;0.90;;;19.40;50.00;;;;;;4833252;29;20108;-64
2021/12/01 01:47:32;;;;;;;0.93;0.60;;;19.40;50.00;;;;;;4845036;29;20056;-64
2021/12/01 01:50:17;;;;;;;1.30;0.60;;;19.40;50.10;;;;;;4845422;29;20062;-64
2021/12/01 01:52:42;;;;;;;2.15;0.95;;;19.40;50.10;;;;;;4845533;29;20029;-64
2021/12/01 01:55:08;;;;;;;1.73;0.90;;;19.30;50.00;;;;;;4845961;29;20038;-65
2021/12/01 01:57:33;;;;;;;0.82;0.70;;;19.40;50.10;;;;;;4844659;29;20379;-64
2021/12/01 01:59:59;;;;;;;2.10;0.70;;;19.30;50.10;;;;;;4846007;29;20030;-64
2021/12/01 02:02:25;;;;;;;1.05;0.77;;;19.30;50.10;;;;;;4843725;29;20364;-64
2021/12/01 02:04:51;;;;;;;0.68;0.68;;;19.30;50.20;;;;;;4844476;29;20049;-64
2021/12/01 02:07:17;;;;;;;1.80;0.80;;;19.30;50.10;;;;;;4844792;29;20098;-64
2021/12/01 02:09:43;;;;;;;1.38;0.70;;;19.30;50.20;;;;;;4826553;29;20490;-64
2021/12/01 02:12:09;;;;;;;1.08;0.70;;;19.20;50.10;;;;;;4854762;29;20045;-64
2021/12/01 02:14:35;;;;;;;0.82;0.60;;;19.20;50.10;;;;;;4847311;29;20501;-64
2021/12/01 02:17:00;;;;;;;1.02;0.60;;;19.20;50.10;;;;;;4844373;29;20038;-64
2021/12/01 02:19:27;;;;;;;0.75;0.60;;;19.20;50.10;;;;;;4828737;29;20098;-64
2021/12/01 02:21:52;;;;;;;1.25;0.55;;;19.20;50.10;;;;;;4843698;29;20121;-66
2021/12/01 02:24:20;;;;;;;0.85;0.50;;;19.20;50.10;;;;;;4856049;29;20440;-66
2021/12/01 02:26:49;;;;;;;2.72;0.63;;;19.20;50.10;;;;;;4853134;29;20101;-66
2021/12/01 02:29:21;;;;;;;0.70;0.60;;;19.20;50.20;;;;;;4828449;29;20037;-66
2021/12/01 02:31:47;;;;;;;1.10;0.63;;;19.20;50.20;;;;;;4844199;29;20044;-66
2021/12/01 02:34:17;;;;;;;0.80;0.60;;;19.20;50.20;;;;;;4844564;29;20112;-66
2021/12/01 02:36:49;;;;;;;0.80;0.60;;;19.10;50.20;;;;;;4843948;29;20394;-66
2021/12/01 02:39:16;;;;;;;0.50;0.50;;;19.10;50.20;;;;;;4843460;29;20162;-66
2021/12/01 02:41:43;;;;;;;1.58;0.65;;;19.10;50.20;;;;;;4843644;29;20117;-67
2021/12/01 02:44:11;;;;;;;0.43;0.40;;;19.10;50.20;;;;;;4843413;29;20377;-67
2021/12/01 02:46:38;;;;;;;1.20;0.50;;;19.10;50.20;;;;;;4843688;29;20090;-66
2021/12/01 02:49:05;;;;;;;0.63;0.50;;;19.10;50.30;;;;;;4843577;29;20057;-66
2021/12/01 02:51:32;;;;;;;0.75;0.43;;;19.10;50.30;;;;;;4844954;29;20041;-64
2021/12/01 02:53:59;;;;;;;0.80;0.50;;;19.10;50.30;;;;;;4844441;29;20037;-65
2021/12/01 02:56:25;;;;;;;0.57;0.50;;;19.00;50.20;;;;;;4842754;29;20034;-65
2021/12/01 02:58:52;;;;;;;0.35;0.30;;;19.10;50.30;;;;;;4843347;29;20042;-64
2021/12/01 03:01:23;;;;;;;0.55;0.50;;;19.00;50.20;;;;;;4843849;29;20390;-65
2021/12/01 03:03:50;;;;;;;0.73;0.43;;;19.10;50.30;;;;;;4843922;29;20462;-64
2021/12/01 03:06:18;;;;;;;0.68;0.50;;;19.10;50.40;;;;;;4842574;29;20129;-64
2021/12/01 03:08:45;;;;;;;0.43;0.35;;;19.00;50.20;;;;;;4845555;29;20034;-64
2021/12/01 03:11:12;;;;;;;0.40;0.40;;;19.00;50.30;;;;;;4854328;29;20432;-64
2021/12/01 03:13:38;;;;;;;0.90;0.40;;;19.00;50.20;;;;;;4861519;29;20061;-65
2021/12/01 03:16:04;;;;;;;0.98;0.57;;;19.00;50.30;;;;;;4846826;29;20041;-64
2021/12/01 03:18:30;;;;;;;0.70;0.35;;;19.00;50.30;;;;;;4843361;29;20050;-64
2021/12/01 03:20:57;;;;;;;0.50;0.40;;;19.00;50.30;;;;;;4842221;29;20034;-64
2021/12/01 03:23:23;;;;;;;0.73;0.73;;;19.00;50.40;;;;;;4842821;29;20082;-65
2021/12/01 03:25:49;;;;;;;0.60;0.40;;;18.90;50.20;;;;;;4843592;29;20121;-65
2021/12/01 03:28:15;;;;;;;0.43;0.40;;;18.90;50.30;;;;;;4843211;29;20105;-65
2021/12/01 03:30:41;;;;;;;0.70;0.50;;;18.90;50.30;;;;;;4842940;29;20052;-65
2021/12/01 03:33:13;;;;;;;0.52;0.50;;;18.90;50.30;;;;;;4843666;29;20112;-65
2021/12/01 03:35:42;;;;;;;0.60;0.40;;;18.90;50.30;;;;;;4843972;29;20030;-65
2021/12/01 03:38:08;;;;;;;0.40;0.40;;;18.90;50.40;;;;;;4826428;29;20022;-65
2021/12/01 03:40:34;;;;;;;0.40;0.40;;;18.90;50.30;;;;;;4853341;29;20030;-65
2021/12/01 03:43:00;;;;;;;0.52;0.40;;;18.90;50.30;;;;;;4843487;29;20443;-65
2021/12/01 03:45:26;;;;;;;0.30;0.30;;;18.90;50.30;;;;;;4842942;29;20375;-65
2021/12/01 03:47:52;;;;;;;0.40;0.40;;;18.90;50.30;;;;;;4846476;29;20065;-64
2021/12/01 03:50:17;;;;;;;0.75;0.40;;;18.90;50.40;;;;;;4845331;29;20050;-64
2021/12/01 03:52:43;;;;;;;0.85;0.40;;;18.90;50.40;;;;;;4842580;29;20037;-65
2021/12/01 03:55:10;;;;;;;0.45;0.40;;;18.90;50.40;;;;;;4843529;29;20042;-65
2021/12/01 03:57:37;;;;;;;0.57;0.40;;;18.80;50.30;;;;;;4845587;29;20033;-65
2021/12/01 04:00:10;;;;;;;0.30;0.30;;;18.80;50.30;;;;;;4827013;29;20102;-65
2021/12/01 04:02:35;;;;;;;0.40;0.40;;;18.80;50.30;;;;;;4841971;29;20038;-64
2021/12/01 04:05:01;;;;;;;1.17;0.47;;;18.80;50.40;;;;;;4842385;29;20038;-64
2021/12/01 04:07:27;;;;;;;0.82;0.38;;;18.80;50.40;;;;;;4846089;29;20038;-64
2021/12/01 04:09:52;;;;;;;0.52;0.50;;;18.80;50.40;;;;;;4848392;29;20095;-64
2021/12/01 04:12:18;;;;;;;0.47;0.45;;;18.80;50.40;;;;;;4857089;29;20497;-64
2021/12/01 04:14:45;;;;;;;0.88;0.40;;;18.70;50.30;;;;;;4844158;29;20102;-64
2021/12/01 04:17:10;;;;;;;0.32;0.30;;;18.80;50.40;;;;;;4842683;29;20026;-64
2021/12/01 04:19:37;;;;;;;1.08;0.50;;;18.70;50.30;;;;;;4847101;29;20383;-65
2021/12/01 04:22:03;;;;;;;0.55;0.40;;;18.70;50.40;;;;;;4843741;29;20038;-65
2021/12/01 04:24:29;;;;;;;0.40;0.40;;;18.70;50.30;;;;;;4847124;29;20021;-64
2021/12/01 04:26:55;;;;;;;0.30;0.30;;;18.70;50.40;;;;;;4842503;29;20423;-66
2021/12/01 04:29:21;;;;;;;0.85;0.60;;;18.70;50.40;;;;;;4842219;29;20034;-66
2021/12/01 04:31:47;;;;;;;0.50;0.40;;;18.70;50.40;;;;;;4846142;29;20077;-66
2021/12/01 04:34:14;;;;;;;0.50;0.50;;;18.70;50.40;;;;;;4848230;29;20513;-66
2021/12/01 04:36:42;;;;;;;0.65;0.43;;;18.70;50.40;;;;;;4850611;29;20033;-66
2021/12/01 04:39:11;;;;;;;0.80;0.73;;;18.70;50.40;;;;;;4848472;29;20018;-66
2021/12/01 04:41:47;;;;;;;0.63;0.50;;;18.70;50.40;;;;;;4848350;29;20033;-67
2021/12/01 04:44:14;;;;;;;0.50;0.40;;;18.60;50.40;;;;;;4853222;29;20053;-66
2021/12/01 04:46:46;;;;;;;1.67;0.50;;;18.60;50.50;;;;;;4846187;29;20078;-66
2021/12/01 04:49:17;;;;;;;0.30;0.30;;;18.60;50.40;;;;;;4845580;29;20499;-64
2021/12/01 04:51:46;;;;;;;0.47;0.40;;;18.60;50.40;;;;;;4845974;29;20494;-64
2021/12/01 04:54:11;;;;;;;0.77;0.47;;;18.60;50.50;;;;;;4845733;29;20034;-64
2021/12/01 04:56:37;;;;;;;0.30;0.30;;;18.60;50.50;;;;;;4846751;29;20034;-64
2021/12/01 04:59:04;;;;;;;0.80;0.50;;;18.60;50.50;;;;;;4856207;29;20109;-66
2021/12/01 05:01:33;;;;;;;0.57;0.50;;;18.60;50.50;;;;;;4844661;29;20030;-66
2021/12/01 05:03:59;;;;;;;0.75;0.50;;;18.60;50.50;;;;;;4852004;29;20025;-66
2021/12/01 05:06:24;;;;;;;0.40;0.40;;;18.60;50.50;;;;;;4848292;29;20055;-66
2021/12/01 05:08:50;;;;;;;0.50;0.50;;;18.50;50.40;;;;;;4851926;29;20061;-67
2021/12/01 05:11:16;;;;;;;1.30;0.30;;;18.50;50.50;;;;;;4851719;29;20065;-66
2021/12/01 05:13:41;;;;;;;0.60;0.50;;;18.50;50.50;;;;;;4855125;29;20504;-64
2021/12/01 05:16:07;;;;;;;0.60;0.40;;;18.50;50.50;;;;;;4845215;29;20049;-64
2021/12/01 05:18:33;;;;;;;1.48;0.70;;;18.50;50.50;;;;;;4845515;29;20049;-64
2021/12/01 05:20:58;;;;;;;0.77;0.60;;;18.50;50.50;;;;;;4845104;29;20113;-64
2021/12/01 05:23:24;;;;;;;1.20;0.50;;;18.50;50.50;;;;;;4845063;29;20037;-64
2021/12/01 05:25:50;;;;;;;0.55;0.43;;;18.50;50.50;;;;;;4845734;29;20030;-66
2021/12/01 05:28:16;;;;;;;1.05;0.40;;;18.50;50.50;;;;;;4844655;29;20037;-66
2021/12/01 05:30:42;;;;;;;1.00;0.60;;;18.50;50.60;;;;;;4846036;29;20034;-66
2021/12/01 05:33:09;;;;;;;0.40;0.40;;;18.40;50.50;;;;;;4844866;29;20044;-66
2021/12/01 05:35:36;;;;;;;0.40;0.40;;;18.50;50.50;;;;;;4845854;29;20040;-66
2021/12/01 05:38:04;;;;;;;1.17;0.60;;;18.40;50.50;;;;;;4845187;29;20045;-66
2021/12/01 05:40:31;;;;;;;0.68;0.40;;;18.40;50.50;;;;;;4855638;29;20116;-67
2021/12/01 05:42:57;;;;;;;0.40;0.40;;;18.40;50.50;;;;;;4844987;29;20026;-66
2021/12/01 05:45:23;;;;;;;0.88;0.52;;;18.40;50.50;;;;;;4844583;29;20438;-64
2021/12/01 05:47:48;;;;;;;0.75;0.50;;;18.40;50.50;;;;;;4846557;29;20033;-64
2021/12/01 05:50:15;;;;;;;0.45;0.38;;;18.40;50.50;;;;;;4845307;29;20120;-64
2021/12/01 05:52:41;;;;;;;0.40;0.40;;;18.40;50.60;;;;;;4852366;29;20022;-64
2021/12/01 05:55:08;;;;;;;0.40;0.40;;;18.40;50.60;;;;;;4848447;29;20565;-67
2021/12/01 05:57:34;;;;;;;0.43;0.40;;;18.40;50.60;;;;;;4846189;29;20042;-67
2021/12/01 06:00:00;;;;;;;1.00;0.40;;;18.40;50.60;;;;;;4844980;29;20077;-67
2021/12/01 06:02:28;;;;;;;0.55;0.40;;;18.30;50.60;;;;;;4852591;29;20047;-66
2021/12/01 06:04:54;;;;;;;2.17;0.70;;;18.30;50.60;;;;;;4850062;29;20041;-66
2021/12/01 06:07:20;;;;;;;0.52;0.40;;;18.30;50.60;;;;;;4843820;29;20125;-64
2021/12/01 06:09:45;;;;;;;1.13;0.40;;;18.30;50.60;;;;;;4847042;29;20413;-64
2021/12/01 06:12:12;;;;;;;0.90;0.50;;;18.30;50.60;;;;;;4859004;29;20038;-64
2021/12/01 06:14:40;;;;;;;1.13;0.68;;;18.30;50.60;;;;;;4845710;29;20431;-64
2021/12/01 06:17:08;;;;;;;0.82;0.45;;;18.30;50.60;;;;;;4827852;29;20045;-64
2021/12/01 06:19:33;;;;;;;0.60;0.30;;;18.30;50.70;;;;;;4845944;29;20039;-64
2021/12/01 06:21:59;;;;;;;0.60;0.50;;;18.30;50.60;;;;;;4852616;29;20082;-64
2021/12/01 06:24:25;;;;;;;0.75;0.65;;;18.30;50.70;;;;;;4847992;29;20394;-64
2021/12/01 06:26:50;;;;;;;0.73;0.47;;;18.20;50.60;;;;;;4844206;29;20030;-64
2021/12/01 06:29:16;;;;;;;0.60;0.40;;;18.20;50.70;;;;;;4846257;29;20045;-64
2021/12/01 06:31:41;;;;;;;0.43;0.40;;;18.20;50.70;;;;;;4843066;29;20466;-64
2021/12/01 06:34:07;;;;;;;0.30;0.30;;;18.20;50.70;;;;;;4846942;29;20070;-64
2021/12/01 06:36:33;;;;;;;0.57;0.30;;;18.20;50.80;;;;;;4845095;29;20102;-66
2021/12/01 06:38:59;;;;;;;0.20;0.20;;;18.20;50.70;;;;;;4845522;29;20038;-67
2021/12/01 06:41:24;;;;;;;0.70;0.47;;;18.20;50.80;;;;;;4830394;29;20486;-66
2021/12/01 06:43:50;;;;;;;0.22;0.22;;;18.20;50.70;;;;;;4847111;29;20079;-66
2021/12/01 06:46:16;;;;;;;0.35;0.35;;;18.10;50.70;;;;;;4845585;29;20030;-64
2021/12/01 06:48:42;;;;;;;0.52;0.32;;;18.20;50.80;;;;;;4846968;29;20093;-64
2021/12/01 06:51:07;;;;;;;0.20;0.20;;;18.10;50.70;;;;;;4846113;29;20362;-64
2021/12/01 06:53:33;;;;;;;0.40;0.40;;;18.10;50.80;;;;;;4847100;29;20090;-64
2021/12/01 06:55:59;;;;;;;0.63;0.50;;;18.10;50.80;;;;;;4846766;29;20686;-65
2021/12/01 06:58:24;;;;;;;0.20;0.20;;;18.10;50.80;;;;;;4847106;29;20045;-64
2021/12/01 07:00:50;;;;;;;1.40;0.20;;;18.10;50.80;;;;;;4844541;29;20034;-64
2021/12/01 07:03:16;;;;;;;0.30;0.30;;;18.10;50.80;;;;;;4842578;29;20065;-64
2021/12/01 07:05:42;;;;;;;0.30;0.30;;;18.10;50.80;;;;;;4842852;29;20067;-64
2021/12/01 07:08:08;;;;;;;0.35;0.30;;;18.10;50.80;;;;;;4855264;29;20030;-64
2021/12/01 07:10:34;;;;;;;0.50;0.30;;;18.10;50.80;;;;;;4848776;29;20041;-64
2021/12/01 07:13:00;;;;;;;0.30;0.30;;;18.10;50.90;;;;;;4854886;29;20362;-66
2021/12/01 07:15:25;;;;;;;0.40;0.30;;;18.10;50.90;;;;;;4843952;29;20379;-66
2021/12/01 07:17:51;;;;;;;1.48;0.40;;;18.10;50.90;;;;;;4852775;29;20033;-66
2021/12/01 07:20:17;;;;;;;0.55;0.38;;;18.00;50.80;;;;;;4843624;29;20033;-66
2021/12/01 07:22:42;;;;;;;0.30;0.30;;;18.00;50.80;;;;;;4826954;29;20030;-66
2021/12/01 07:25:10;;;;;;;0.50;0.30;;;18.00;50.90;;;;;;4842996;29;20481;-66
2021/12/01 07:27:35;;;;;;;1.70;0.20;;;18.00;51.80;;;;;;4854861;29;20038;-66
2021/12/01 07:30:02;;;;;;;0.28;0.25;;;18.00;50.90;;;;;;4843108;29;20588;-66
2021/12/01 07:32:27;;;;;;;0.20;0.20;;;18.00;50.90;;;;;;4841813;29;20094;-66
2021/12/01 07:34:53;;;;;;;1.00;0.35;;;18.00;50.90;;;;;;4843319;29;20108;-66
2021/12/01 07:37:19;;;;;;;0.30;0.30;;;18.00;50.90;;;;;;4826962;29;20058;-66
2021/12/01 07:39:45;;;;;;;0.20;0.20;;;18.00;51.00;;;;;;4843194;29;20034;-66
2021/12/01 07:42:12;;;;;;;0.40;0.30;;;18.00;51.00;;;;;;4848892;29;20037;-68
2021/12/01 07:44:38;;;;;;;1.17;0.55;;;18.00;51.00;;;;;;4842745;29;20494;-64
2021/12/01 07:47:04;;;;;;;0.77;0.40;;;17.90;52.10;;;;;;4843220;29;20037;-64
2021/12/01 07:49:29;;;;;;;1.38;0.68;;;17.70;51.90;;;;;;4842801;29;20123;-64
2021/12/01 07:51:55;;;;;;;1.90;0.43;;;17.20;53.50;;;;;;4844889;29;20042;-63
2021/12/01 07:54:20;;;;;;;0.63;0.60;;;16.80;54.80;;;;;;4842941;29;20447;-62
2021/12/01 07:56:46;;;;;;;0.45;0.25;;;16.50;55.60;;;;;;4825727;29;20030;-62
2021/12/01 07:59:15;;;;;;;2.30;0.30;;;16.50;55.90;;;;;;4850135;29;20371;-62
2021/12/01 08:01:44;;;;;;;0.65;0.28;;;16.60;56.00;;;;;;4852768;29;20117;-63
2021/12/01 08:04:11;;;;;;;1.38;0.35;;;16.70;55.90;;;;;;4855648;29;20026;-63
2021/12/01 08:06:37;;;;;;;2.47;0.30;;;16.80;56.20;;;;;;4855311;29;20049;-62
2021/12/01 08:09:04;;;;;;;0.68;0.30;;;16.90;55.60;;;;;;4854241;29;20494;-63
2021/12/01 08:11:30;;;;;;;0.35;0.20;;;17.10;55.50;;;;;;4850895;29;20034;-63
2021/12/01 08:13:55;;;;;;;0.52;0.30;;;17.20;55.30;;;;;;4846332;29;20049;-63
2021/12/01 08:16:21;;;;;;;0.70;0.30;;;17.40;55.20;;;;;;4850069;29;20034;-63
2021/12/01 08:18:51;;;;;;;0.50;0.30;;;17.50;55.00;;;;;;4853229;29;20040;-63
2021/12/01 08:21:18;;;;;;;0.10;0.10;;;17.60;54.60;;;;;;4850072;29;20038;-63
2021/12/01 08:23:43;;;;;;;0.73;0.22;;;17.80;54.40;;;;;;4855322;29;20041;-63
2021/12/01 08:26:09;;;;;;;1.00;0.35;;;17.90;54.00;;;;;;4859306;29;20044;-62
2021/12/01 08:28:35;;;;;;;0.43;0.28;;;18.00;54.70;;;;;;4859544;29;20041;-63
2021/12/01 08:31:00;;;;;;;0.85;0.30;;;18.10;53.50;;;;;;4859220;29;20386;-62
2021/12/01 08:33:26;;;;;;;0.47;0.15;;;18.30;53.40;;;;;;4851861;29;20397;-62
2021/12/01 08:35:52;;;;;;;0.38;0.10;;;18.40;53.00;;;;;;4860345;29;20028;-62
2021/12/01 08:38:17;;;;;;;1.10;0.28;;;18.50;52.70;;;;;;4859833;29;20048;-63
2021/12/01 08:40:43;;;;;;;0.52;0.20;;;18.60;52.40;;;;;;4860032;29;20443;-62
2021/12/01 08:43:09;;;;;;;0.55;0.30;;;18.70;52.30;;;;;;4859805;29;20037;-62
2021/12/01 08:45:35;;;;;;;1.27;0.30;;;18.80;52.10;;;;;;4860149;29;20037;-62
2021/12/01 08:48:03;;;;;;;0.50;0.20;;;18.90;51.90;;;;;;4860860;29;20030;-62
2021/12/01 08:50:29;;;;;;;0.17;0.17;;;18.90;51.70;;;;;;4861360;29;20026;-63
2021/12/01 08:52:55;;;;;;;0.52;0.22;;;19.00;51.60;;;;;;4860299;29;20030;-63
2021/12/01 08:55:23;;;;;;;1.20;0.30;;;19.10;51.40;;;;;;4859773;29;20030;-63
2021/12/01 08:57:52;;;;;;;2.63;0.43;;;19.20;51.30;;;;;;4859043;29;20045;-63
2021/12/01 09:00:20;;;;;;;1.67;0.52;;;19.20;51.00;;;;;;4860793;29;20034;-62
2021/12/01 09:02:46;;;;;;;1.75;0.35;;;19.30;50.90;;;;;;4849181;29;20030;-62
2021/12/01 09:05:12;;;;;;;0.85;0.20;;;19.40;50.90;;;;;;4846324;29;20056;-62
2021/12/01 09:07:38;;;;;;;0.65;0.20;;;19.50;50.70;;;;;;4845591;29;20044;-62
2021/12/01 09:10:05;;;;;;;1.40;0.50;;;19.60;50.60;;;;;;4845506;29;20030;-62
2021/12/01 09:12:32;;;;;;;1.23;0.30;;;19.70;50.50;;;;;;4856764;29;20040;-62
2021/12/01 09:14:57;;;;;;;1.20;0.20;;;19.70;50.30;;;;;;4845988;29;20026;-68
2021/12/01 09:17:24;;;;;;;0.88;0.30;;;19.80;50.20;;;;;;4845930;29;20379;-68
2021/12/01 09:19:51;;;;;;;0.85;0.43;;;19.90;50.00;;;;;;4844431;29;20026;-68
2021/12/01 09:22:18;;;;;;;1.30;0.30;;;20.00;50.00;;;;;;4846090;29;20054;-68
2021/12/01 09:24:46;;;;;;;3.80;0.40;;;20.10;49.80;;;;;;4845778;29;20030;-68
2021/12/01 09:27:11;;;;;;;0.10;0.10;;;20.10;49.60;;;;;;4845177;29;20390;-63
2021/12/01 09:29:37;;;;;;;1.25;0.20;;;20.20;49.50;;;;;;4845006;29;20026;-63
2021/12/01 09:32:04;;;;;;;1.35;0.30;;;20.30;50.30;;;;;;4845258;29;20148;-63
2021/12/01 09:34:30;;;;;;;0.43;0.10;;;20.40;49.20;;;;;;4845024;29;20482;-63
2021/12/01 09:36:56;;;;;;;1.27;0.20;;;20.40;49.10;;;;;;4828297;29;20059;-63
2021/12/01 09:39:23;;;;;;;0.47;0.30;;;20.50;49.00;;;;;;4846076;29;20033;-63
2021/12/01 09:41:50;;;;;;;0.17;0.10;;;20.50;48.80;;;;;;4829302;29;20029;-62
2021/12/01 09:44:16;;;;;;;0.85;0.10;;;20.60;48.70;;;;;;4845315;29;20030;-63
2021/12/01 09:46:42;;;;;;;0.85;0.20;;;20.60;48.50;;;;;;4845767;29;20026;-62
2021/12/01 09:49:07;;;;;;;1.23;0.17;;;20.70;48.40;;;;;;4828678;29;20049;-63
2021/12/01 09:51:35;;;;;;;0.95;0.20;;;20.70;48.30;;;;;;4844657;29;20030;-64
2021/12/01 09:54:02;;;;;;;0.57;0.20;;;20.70;48.20;;;;;;4844750;29;20162;-63
2021/12/01 09:56:29;;;;;;;0.85;0.28;;;20.80;48.20;;;;;;4845909;29;20386;-62
2021/12/01 09:58:54;;;;;;;2.00;0.20;;;20.80;48.10;;;;;;4845018;29;20407;-63
2021/12/01 10:01:25;;;;;;;6.07;0.70;;;20.80;48.00;;;;;;4844622;29;20059;-62
2021/12/01 10:03:52;;;;;;;0.90;0.50;;;20.90;47.90;;;;;;4852012;29;20026;-62
2021/12/01 10:06:25;;;;;;;1.85;0.40;;;20.90;47.80;;;;;;4848521;29;20050;-62
2021/12/01 10:08:57;;;;;;;2.65;0.47;;;20.90;47.70;;;;;;4845076;29;20030;-63
2021/12/01 10:11:29;;;;;;;2.22;0.40;;;20.90;47.60;;;;;;4847346;29;20151;-64
2021/12/01 10:14:01;;;;;;;2.58;0.50;;;20.90;47.60;;;;;;4852892;29;20562;-64
2021/12/01 10:16:30;;;;;;;3.72;1.02;;;20.90;47.50;;;;;;4845348;29;20037;-64
2021/12/01 10:18:58;;;;;;;1.58;0.45;;;20.90;47.60;;;;;;4844397;29;20041;-64
2021/12/01 10:21:47;;;;;;;1.27;0.32;;;20.90;47.60;;;;;;4845049;29;20576;-64
2021/12/01 10:24:16;;;;;;;2.53;0.47;;;21.00;47.40;;;;;;4845424;29;20487;-64
2021/12/01 10:26:48;;;;;;;1.63;0.50;;;20.90;47.50;;;;;;4844885;29;20029;-64
2021/12/01 10:29:19;;;;;;;0.70;0.20;;;20.90;47.50;;;;;;4845125;29;20494;-64
2021/12/01 10:31:57;;;;;;;1.25;0.43;;;21.00;47.50;;;;;;4844504;29;20113;-61
2021/12/01 10:34:23;;;;;;;2.72;0.50;;;21.00;47.50;;;;;;4844804;29;20026;-64
2021/12/01 10:37:12;;;;;;;3.17;0.77;;;21.00;47.50;;;;;;4844557;29;20112;-64
2021/12/01 10:39:39;;;;;;;1.95;0.55;;;21.10;47.30;;;;;;4832204;29;20065;-63
2021/12/01 10:42:07;;;;;;;1.27;0.50;;;21.00;47.40;;;;;;4843743;29;20030;-63
2021/12/01 10:44:35;;;;;;;3.05;0.70;;;21.00;47.40;;;;;;4852371;29;20033;-63
2021/12/01 10:47:09;;;;;;;1.35;0.40;;;21.00;48.40;;;;;;4847397;29;20038;-64
2021/12/01 10:49:42;;;;;;;3.13;0.47;;;21.00;47.40;;;;;;4844170;29;20030;-63
2021/12/01 10:52:39;;;;;;;1.00;0.40;;;21.00;47.40;;;;;;4843820;29;20041;-64
2021/12/01 10:55:05;;;;;;;1.27;0.40;;;21.10;47.30;;;;;;4842557;29;20054;-73
2021/12/01 10:57:31;;;;;;;0.40;0.30;;;21.10;47.40;;;;;;4852213;29;20040;-64
2021/12/01 10:59:56;;;;;;;1.85;0.50;;;21.10;47.30;;;;;;4861536;29;20034;-64
2021/12/01 11:02:22;;;;;;;1.27;0.20;;;21.10;47.20;;;;;;4857062;29;20029;-64
2021/12/01 11:04:52;;;;;;;1.45;0.40;;;21.10;47.30;;;;;;4851653;29;20529;-64
2021/12/01 11:07:29;;;;;;;1.80;0.55;;;21.10;47.20;;;;;;4843399;29;20037;-64
2021/12/01 11:10:12;;;;;;;1.95;0.65;;;21.10;47.10;;;;;;4843931;29;20030;-64
2021/12/01 11:12:38;;;;;;;1.60;0.47;;;21.10;47.00;;;;;;4856963;29;20029;-63
2021/12/01 11:15:25;;;;;;;2.75;0.50;;;21.10;47.30;;;;;;4861670;29;20045;-64
2021/12/01 11:17:52;;;;;;;4.35;0.68;;;21.10;47.10;;;;;;4861274;29;20037;-64
2021/12/01 11:20:42;;;;;;;1.42;0.30;;;21.10;47.20;;;;;;4861037;29;20021;-63
2021/12/01 11:23:24;;;;;;;2.67;0.50;;;21.10;47.00;;;;;;4849915;29;20037;-63
2021/12/01 11:25:52;;;;;;;2.92;0.32;;;21.10;47.10;;;;;;4860111;29;20026;-63
2021/12/01 11:28:20;;;;;;;1.55;0.40;;;21.10;47.20;;;;;;4860736;29;20058;-63
2021/12/01 11:30:49;;;;;;;2.75;0.52;;;21.10;47.20;;;;;;4859998;29;20474;-63
2021/12/01 11:33:18;;;;;;;1.20;0.50;;;21.00;47.10;;;;;;4860750;29;20062;-63
2021/12/01 11:35:46;;;;;;;3.00;0.40;;;21.00;47.20;;;;;;4860832;29;20033;-71
2021/12/01 11:38:13;;;;;;;0.60;0.30;;;21.00;47.20;;;;;;4858065;29;20032;-70
2021/12/01 11:40:40;;;;;;;1.85;0.40;;;21.00;47.20;;;;;;4858115;29;20040;-70
2021/12/01 11:43:08;;;;;;;4.13;0.50;;;21.10;47.20;;;;;;4860082;29;20036;-69
2021/12/01 11:45:39;;;;;;;2.10;0.40;;;21.00;47.20;;;;;;4860476;29;20359;-70
2021/12/01 11:48:12;;;;;;;1.45;0.73;;;21.10;47.20;;;;;;4860798;29;20511;-70
2021/12/01 11:50:46;;;;;;;1.42;0.30;;;21.00;47.20;;;;;;4860418;29;20397;-70
2021/12/01 11:53:22;;;;;;;1.75;0.43;;;21.00;47.20;;;;;;4860834;29;20058;-71
2021/12/01 11:55:48;;;;;;;1.17;0.32;;;21.00;47.20;;;;;;4860512;29;20029;-69
2021/12/01 11:58:40;;;;;;;2.85;0.88;;;21.00;47.40;;;;;;4831269;29;20056;-70
2021/12/01 12:01:21;;;;;;;2.25;0.30;;;21.10;47.40;;;;;;4838433;29;20064;-69
2021/12/01 12:03:53;;;;;;;0.98;0.25;;;21.00;47.50;;;;;;4842686;29;20431;-64
2021/12/01 12:06:26;;;;;;;1.98;0.30;;;21.00;47.50;;;;;;4842754;29;20485;-64
2021/12/01 12:09:05;;;;;;;1.52;0.30;;;21.00;47.40;;;;;;4848528;29;20058;-64
2021/12/01 12:11:53;;;;;;;1.17;0.30;;;21.00;47.40;;;;;;4851300;29;20086;-64
2021/12/01 12:14:24;;;;;;;1.10;0.22;;;21.00;47.40;;;;;;4850648;29;20082;-64
2021/12/01 12:17:14;;;;;;;1.33;0.52;;;20.90;47.50;;;;;;4850172;29;20033;-64
2021/12/01 12:20:11;;;;;;;0.73;0.40;;;20.90;47.60;;;;;;4850581;29;20117;-64
2021/12/01 12:22:42;;;;;;;0.90;0.50;;;20.90;47.70;;;;;;4850270;29;20056;-64
2021/12/01 12:25:32;;;;;;;1.63;0.55;;;20.80;47.90;;;;;;4835289;29;20025;-64
2021/12/01 12:27:58;;;;;;;1.63;0.50;;;20.80;47.90;;;;;;4845392;29;20059;-63
2021/12/01 12:30:30;;;;;;;1.20;0.40;;;20.80;48.00;;;;;;4826739;29;20025;-65
2021/12/01 12:33:19;;;;;;;1.73;0.40;;;20.80;48.10;;;;;;4843119;29;20061;-66
2021/12/01 12:35:50;;;;;;;2.13;0.50;;;20.80;48.00;;;;;;4843632;29;20033;-66
2021/12/01 12:38:17;;;;;;;0.75;0.40;;;20.80;48.10;;;;;;4843026;29;20054;-65
2021/12/01 12:40:43;;;;;;;1.67;0.30;;;20.80;47.80;;;;;;4843626;29;20038;-65
2021/12/01 12:43:14;;;;;;;1.60;0.30;;;20.80;47.80;;;;;;4843115;29;20043;-65
2021/12/01 12:45:59;;;;;;;1.50;0.38;;;20.80;47.70;;;;;;4843822;29;20535;-64
2021/12/01 12:48:29;;;;;;;1.58;0.35;;;20.80;47.70;;;;;;4844231;29;20038;-65
2021/12/01 12:51:13;;;;;;;1.13;0.40;;;20.80;47.80;;;;;;4850292;29;20038;-66
2021/12/01 12:54:01;;;;;;;1.80;0.50;;;20.80;47.50;;;;;;4846775;29;20117;-64
2021/12/01 12:56:36;;;;;;;1.65;0.32;;;20.90;47.60;;;;;;4855740;29;20037;-64
2021/12/01 12:59:19;;;;;;;0.70;0.30;;;20.80;47.70;;;;;;4847862;29;20037;-64
2021/12/01 13:02:05;;;;;;;1.15;0.32;;;20.90;47.40;;;;;;4848096;29;20414;-64